createdAt,value
2023-03-22T00:01:15.869Z,18.10
2023-03-22T00:03:44.593Z,18.10
2023-03-22T00:06:16.883Z,18.07
2023-03-22T00:08:48.645Z,18.06
2023-03-22T00:11:24.396Z,18.08
2023-03-22T00:13:53.875Z,18.08
2023-03-22T00:16:22.392Z,18.08
2023-03-22T00:18:59.809Z,18.07
2023-03-22T00:21:29.669Z,18.04
2023-03-22T00:23:58.306Z,17.99
2023-03-22T00:26:26.615Z,17.98
2023-03-22T00:28:54.865Z,17.95
2023-03-22T00:31:23.310Z,17.92
2023-03-22T00:33:52.653Z,17.87
2023-03-22T00:36:21.140Z,17.84
2023-03-22T00:38:52.575Z,17.82
2023-03-22T00:41:22.708Z,17.81
2023-03-22T00:43:56.755Z,17.79
2023-03-22T00:46:25.364Z,17.77
2023-03-22T00:48:53.757Z,17.74
2023-03-22T00:51:24.568Z,17.63
2023-03-22T00:53:54.273Z,17.61
2023-03-22T00:56:25.669Z,17.62
2023-03-22T00:59:14.507Z,17.57
2023-03-22T01:01:47.023Z,17.52
2023-03-22T01:04:18.316Z,17.53
2023-03-22T01:06:47.400Z,17.45
2023-03-22T01:09:16.094Z,17.43
2023-03-22T01:11:45.881Z,17.47
2023-03-22T01:14:14.516Z,17.47
2023-03-22T01:16:43.351Z,17.46
2023-03-22T01:19:11.720Z,17.41
2023-03-22T01:21:40.555Z,17.37
2023-03-22T01:24:08.881Z,17.35
2023-03-22T01:26:39.005Z,17.32
2023-03-22T01:29:07.462Z,17.29
2023-03-22T01:31:35.903Z,17.27
2023-03-22T01:34:04.635Z,17.24
2023-03-22T01:36:33.683Z,17.25
2023-03-22T01:39:02.241Z,17.23
2023-03-22T01:41:35.287Z,17.19
2023-03-22T01:44:18.259Z,17.15
2023-03-22T01:46:48.431Z,17.10
2023-03-22T01:49:31.661Z,17.04
2023-03-22T01:52:04.577Z,16.98
2023-03-22T01:55:02.576Z,16.91
2023-03-22T01:57:42.186Z,16.82
2023-03-22T02:00:16.040Z,16.75
2023-03-22T02:03:04.516Z,16.66
2023-03-22T02:05:37.626Z,16.62
2023-03-22T02:08:09.461Z,16.61
2023-03-22T02:11:01.784Z,16.58
2023-03-22T02:13:34.493Z,16.55
2023-03-22T02:16:35.456Z,16.54
2023-03-22T02:19:15.781Z,16.50
2023-03-22T02:22:02.130Z,16.44
2023-03-22T02:24:49.751Z,16.47
2023-03-22T02:27:31.932Z,16.47
2023-03-22T02:30:10.810Z,16.49
2023-03-22T02:32:48.509Z,16.49
2023-03-22T02:35:26.259Z,16.48
2023-03-22T02:37:57.820Z,16.44
2023-03-22T02:40:48.239Z,16.42
2023-03-22T02:43:31.113Z,16.38
2023-03-22T02:46:10.036Z,16.33
2023-03-22T02:48:49.199Z,16.32
2023-03-22T02:51:27.355Z,16.36
2023-03-22T02:53:58.124Z,16.34
2023-03-22T02:56:31.802Z,16.29
2023-03-22T02:59:03.508Z,16.27
2023-03-22T03:01:38.830Z,16.25
2023-03-22T03:04:09.820Z,16.26
2023-03-22T03:06:40.988Z,16.23
2023-03-22T03:09:09.650Z,16.20
2023-03-22T03:11:38.785Z,16.18
2023-03-22T03:14:07.361Z,16.19
2023-03-22T03:16:36.857Z,16.16
2023-03-22T03:19:20.696Z,16.10
2023-03-22T03:22:00.792Z,16.06
2023-03-22T03:24:32.764Z,16.02
2023-03-22T03:27:24.434Z,15.98
2023-03-22T03:30:02.486Z,15.92
2023-03-22T03:32:35.791Z,15.86
2023-03-22T03:35:22.569Z,15.82
2023-03-22T03:37:59.357Z,15.79
2023-03-22T03:40:31.332Z,15.71
2023-03-22T03:43:02.924Z,15.65
2023-03-22T03:45:33.037Z,15.55
2023-03-22T03:48:05.124Z,15.47
2023-03-22T03:50:33.678Z,15.45
2023-03-22T03:53:02.435Z,15.43
2023-03-22T03:55:31.108Z,15.43
2023-03-22T03:57:59.616Z,15.41
2023-03-22T04:00:28.110Z,15.36
2023-03-22T04:03:19.344Z,15.36
2023-03-22T04:06:04.055Z,15.36
2023-03-22T04:08:35.482Z,15.36
2023-03-22T04:11:05.522Z,15.40
2023-03-22T04:13:35.881Z,15.44
2023-03-22T04:16:07.541Z,15.47
2023-03-22T04:18:38.611Z,15.49
2023-03-22T04:21:08.990Z,15.57
2023-03-22T04:23:46.952Z,15.48
2023-03-22T04:26:16.092Z,15.48
2023-03-22T04:29:04.787Z,15.50
2023-03-22T04:31:35.891Z,15.48
2023-03-22T04:34:18.687Z,15.53
2023-03-22T04:37:03.965Z,15.55
2023-03-22T04:42:20.054Z,14.66
2023-03-22T04:44:49.074Z,15.74
2023-03-22T04:47:18.256Z,15.83
2023-03-22T04:49:50.549Z,15.90
2023-03-22T04:52:19.183Z,15.94
2023-03-22T04:54:54.067Z,16.03
2023-03-22T04:57:22.901Z,16.07
2023-03-22T04:59:53.749Z,16.11
2023-03-22T05:02:22.989Z,16.15
2023-03-22T05:04:51.636Z,16.22
2023-03-22T05:07:36.861Z,16.26
2023-03-22T05:10:07.830Z,16.26
2023-03-22T05:12:36.210Z,16.36
2023-03-22T05:15:21.112Z,16.44
2023-03-22T05:17:52.999Z,16.52
2023-03-22T05:20:21.371Z,16.54
2023-03-22T05:22:58.200Z,16.59
2023-03-22T05:25:27.582Z,16.66
2023-03-22T05:28:02.036Z,16.68
2023-03-22T05:30:52.247Z,16.72
2023-03-22T05:33:35.006Z,16.76
2023-03-22T05:36:04.247Z,16.79
2023-03-22T05:38:35.595Z,16.81
2023-03-22T05:41:05.463Z,16.72
2023-03-22T05:43:34.357Z,16.70
2023-03-22T05:46:08.880Z,16.65
2023-03-22T05:48:51.419Z,16.64
2023-03-22T05:51:20.057Z,16.66
2023-03-22T05:53:53.673Z,16.69
2023-03-22T05:56:29.772Z,16.81
2023-03-22T05:59:12.314Z,16.93
2023-03-22T06:01:43.677Z,17.02
2023-03-22T06:04:21.299Z,17.10
2023-03-22T06:07:07.344Z,17.19
2023-03-22T06:10:07.130Z,17.29
2023-03-22T06:12:38.094Z,17.32
2023-03-22T06:15:12.751Z,17.36
2023-03-22T06:18:00.170Z,17.42
2023-03-22T06:20:32.015Z,17.45
2023-03-22T06:23:04.591Z,17.58
2023-03-22T06:25:33.695Z,17.63
2023-03-22T06:28:03.006Z,17.63
2023-03-22T06:30:31.855Z,17.67
2023-03-22T06:33:21.740Z,17.75
2023-03-22T06:35:55.980Z,17.79
2023-03-22T06:38:32.474Z,17.88
2023-03-22T06:41:00.846Z,17.95
2023-03-22T06:43:30.232Z,18.03
2023-03-22T06:46:11.870Z,18.09
2023-03-22T06:48:48.244Z,18.10
2023-03-22T06:51:19.571Z,18.17
2023-03-22T06:53:48.568Z,18.25
2023-03-22T06:56:17.124Z,18.31
2023-03-22T06:58:51.976Z,18.37
2023-03-22T07:01:24.125Z,18.44
2023-03-22T07:03:55.369Z,18.53
2023-03-22T07:06:25.212Z,18.53
2023-03-22T07:08:53.837Z,18.58
2023-03-22T07:11:26.948Z,18.55
2023-03-22T07:14:00.288Z,18.70
2023-03-22T07:16:35.813Z,18.73
2023-03-22T07:19:09.342Z,18.69
2023-03-22T07:21:38.155Z,18.70
2023-03-22T07:24:09.356Z,18.74
2023-03-22T07:26:39.362Z,18.82
2023-03-22T07:29:08.958Z,18.88
2023-03-22T07:31:38.192Z,18.98
2023-03-22T07:34:27.635Z,19.08
2023-03-22T07:37:05.219Z,19.11
2023-03-22T07:39:35.015Z,19.11
2023-03-22T07:42:05.896Z,19.20
2023-03-22T07:44:57.400Z,19.30
2023-03-22T07:47:39.833Z,19.31
2023-03-22T07:50:24.462Z,19.41
2023-03-22T07:52:56.241Z,19.46
2023-03-22T07:55:24.685Z,19.54
2023-03-22T07:57:53.973Z,19.65
2023-03-22T08:00:23.448Z,19.71
2023-03-22T08:02:58.121Z,19.71
2023-03-22T08:05:44.651Z,19.73
2023-03-22T08:08:15.784Z,19.76
2023-03-22T08:10:50.855Z,19.91
2023-03-22T08:13:19.979Z,20.09
2023-03-22T08:15:48.556Z,20.09
2023-03-22T08:18:19.438Z,20.18
2023-03-22T08:20:59.673Z,20.31
2023-03-22T08:23:41.029Z,20.40
2023-03-22T08:26:39.905Z,20.50
2023-03-22T08:29:16.418Z,20.57
2023-03-22T08:31:48.210Z,20.65
2023-03-22T08:34:16.617Z,20.65
2023-03-22T08:36:46.581Z,20.70
2023-03-22T08:39:16.204Z,20.77
2023-03-22T08:42:09.221Z,20.82
2023-03-22T08:44:38.168Z,20.85
2023-03-22T08:47:06.783Z,20.95
2023-03-22T08:49:35.778Z,21.14
2023-03-22T08:52:09.550Z,21.33
2023-03-22T08:54:45.463Z,21.47
2023-03-22T08:57:50.478Z,21.60
2023-03-22T09:00:47.859Z,21.63
2023-03-22T09:03:25.142Z,21.58
2023-03-22T09:05:53.665Z,21.58
2023-03-22T09:08:23.350Z,21.54
2023-03-22T09:11:00.111Z,21.49
2023-03-22T09:13:31.571Z,21.52
2023-03-22T09:16:04.293Z,21.64
2023-03-22T09:18:36.342Z,21.79
2023-03-22T09:21:10.579Z,22.01
2023-03-22T09:23:50.595Z,22.22
2023-03-22T09:26:22.973Z,22.35
2023-03-22T09:28:52.338Z,22.41
2023-03-22T09:31:21.021Z,22.39
2023-03-22T09:33:55.291Z,22.40
2023-03-22T09:36:23.853Z,22.30
2023-03-22T09:38:53.141Z,22.21
2023-03-22T09:41:34.711Z,22.22
2023-03-22T09:44:05.712Z,22.24
2023-03-22T09:46:44.554Z,22.42
2023-03-22T09:49:19.927Z,22.61
2023-03-22T09:51:54.034Z,22.66
2023-03-22T09:54:35.403Z,22.70
2023-03-22T09:57:09.774Z,22.70
2023-03-22T09:59:44.703Z,22.73
2023-03-22T10:02:35.523Z,22.79
2023-03-22T10:05:15.796Z,22.85
2023-03-22T10:08:03.122Z,22.85
2023-03-22T10:10:31.814Z,22.83
2023-03-22T10:13:20.098Z,22.81
2023-03-22T10:15:52.575Z,22.73
2023-03-22T10:18:26.054Z,22.63
2023-03-22T10:21:04.892Z,22.65
2023-03-22T10:23:45.953Z,22.81
2023-03-22T10:26:22.974Z,22.95
2023-03-22T10:29:02.700Z,22.97
2023-03-22T10:31:32.407Z,23.00
2023-03-22T10:34:06.805Z,22.93
2023-03-22T10:36:37.440Z,22.99
2023-03-22T10:39:24.277Z,23.12
2023-03-22T10:41:55.363Z,23.29
2023-03-22T10:44:24.956Z,23.45
2023-03-22T10:47:00.453Z,23.41
2023-03-22T10:49:32.498Z,23.21
2023-03-22T10:52:39.766Z,23.07
2023-03-22T10:55:12.754Z,22.95
2023-03-22T10:57:43.293Z,23.01
2023-03-22T11:00:15.585Z,23.02
2023-03-22T11:02:52.352Z,23.10
2023-03-22T11:05:28.766Z,23.14
2023-03-22T11:07:59.095Z,23.16
2023-03-22T11:10:32.873Z,23.20
2023-03-22T11:13:09.969Z,23.27
2023-03-22T11:15:42.467Z,23.27
2023-03-22T11:18:13.297Z,23.31
2023-03-22T11:21:11.321Z,23.36
2023-03-22T11:23:41.445Z,23.49
2023-03-22T11:26:12.242Z,23.54
2023-03-22T11:28:50.400Z,23.59
2023-03-22T11:31:20.017Z,23.63
2023-03-22T11:33:56.042Z,23.66
2023-03-22T11:36:24.703Z,23.80
2023-03-22T11:39:07.475Z,23.95
2023-03-22T11:41:36.999Z,24.04
2023-03-22T11:44:12.393Z,24.00
2023-03-22T11:47:00.033Z,23.94
2023-03-22T11:49:45.766Z,23.89
2023-03-22T11:52:23.625Z,23.85
2023-03-22T11:54:52.077Z,23.82
2023-03-22T11:57:25.454Z,23.77
2023-03-22T12:00:11.725Z,23.74
2023-03-22T12:02:50.064Z,23.73
2023-03-22T12:05:24.600Z,23.70
2023-03-22T12:08:12.118Z,23.71
2023-03-22T12:10:42.471Z,23.68
2023-03-22T12:13:30.845Z,23.68
2023-03-22T12:16:01.066Z,23.68
2023-03-22T12:18:51.449Z,23.68
2023-03-22T12:21:20.086Z,23.66
2023-03-22T12:23:48.742Z,23.67
2023-03-22T12:26:22.322Z,23.78
2023-03-22T12:28:59.560Z,23.88
2023-03-22T12:31:36.724Z,23.94
2023-03-22T12:34:07.485Z,23.96
2023-03-22T12:36:47.105Z,23.94
2023-03-22T12:39:41.367Z,23.94
2023-03-22T12:42:19.360Z,23.88
2023-03-22T12:45:02.223Z,23.80
2023-03-22T12:47:38.618Z,23.63
2023-03-22T12:50:18.861Z,23.59
2023-03-22T12:52:54.886Z,23.71
2023-03-22T12:55:30.203Z,23.94
2023-03-22T12:58:06.463Z,24.17
2023-03-22T13:00:58.657Z,24.48
2023-03-22T13:03:30.023Z,24.82
2023-03-22T13:06:03.808Z,25.01
2023-03-22T13:09:02.428Z,25.13
2023-03-22T13:11:36.286Z,25.37
2023-03-22T13:14:04.828Z,25.52
2023-03-22T13:16:49.138Z,25.61
2023-03-22T13:19:28.886Z,25.70
2023-03-22T13:22:35.943Z,25.67
2023-03-22T13:25:23.812Z,25.63
2023-03-22T13:27:59.869Z,25.47
2023-03-22T13:30:50.711Z,25.32
2023-03-22T13:33:30.194Z,25.17
2023-03-22T13:36:07.641Z,25.04
2023-03-22T13:38:42.107Z,24.94
2023-03-22T13:41:21.349Z,24.85
2023-03-22T13:43:50.659Z,24.82
2023-03-22T13:46:22.387Z,24.71
2023-03-22T13:49:11.738Z,24.69
2023-03-22T13:51:40.109Z,24.72
2023-03-22T13:54:09.716Z,24.74
2023-03-22T13:56:42.603Z,24.71
2023-03-22T14:00:08.816Z,24.68
2023-03-22T14:03:06.253Z,24.63
2023-03-22T14:05:36.557Z,24.62
2023-03-22T14:08:05.397Z,24.65
2023-03-22T14:10:53.030Z,24.68
2023-03-22T14:13:35.495Z,24.67
2023-03-22T14:16:11.813Z,24.70
2023-03-22T14:18:43.521Z,24.70
2023-03-22T14:21:18.095Z,24.71
